This is the latest recevied weather packets stored in our database for station/object JI8TEY-15. If no packets are shown the sender has not sent any weather packets the latest 10 day(s).
| Time | Temp. | Humidity | Pressure | Rain* | Wind** | Luminosity | Snow |
|---|---|---|---|---|---|---|---|
| 1788149447 | 76° F | 37% | 761.3 mmHg | 0 in | - | - | - |
| 1788145848 | 76° F | 37% | 761.3 mmHg | 0 in | - | - | - |
| 1788142246 | 75° F | 37% | 761.3 mmHg | 0 in | - | - | - |
| 1788138647 | 75° F | 37% | 761.3 mmHg | 0 in | - | - | - |
| 1788135047 | 72° F | 38% | 761.3 mmHg | 0 in | - | - | - |
| 1788131447 | 70° F | 60% | 760.6 mmHg | 0 in | - | - | - |
| 1788127847 | 66° F | 69% | 760.6 mmHg | 0 in | - | - | - |
| 1788124247 | 64° F | 76% | 760.6 mmHg | 0 in | - | - | - |
| 1788120648 | 61° F | 78% | 759.8 mmHg | 0 in | - | - | - |
| 1788117047 | 62° F | 76% | 760.6 mmHg | 0 in | - | - | - |
| 1788113448 | 63° F | 75% | 760.6 mmHg | 0 in | - | - | - |
| 1788109846 | 63° F | 74% | 759.8 mmHg | 0 in | - | - | - |
| 1788106247 | 63° F | 74% | 759.8 mmHg | 0 in | - | - | - |
| 1788102648 | 64° F | 72% | 759.1 mmHg | 0 in | - | - | - |
| 1788099048 | 64° F | 72% | 759.8 mmHg | 0 in | - | - | - |
| 1788095447 | 64° F | 70% | 759.8 mmHg | 0 in | - | - | - |
| 1788091846 | 65° F | 70% | 759.8 mmHg | 0 in | - | - | - |
| 1788088247 | 65° F | 69% | 759.8 mmHg | 0 in | - | - | - |
| 1788084646 | 65° F | 69% | 759.1 mmHg | 0 in | - | - | - |
| 1788081046 | 66° F | 63% | 759.1 mmHg | 0 in | - | - | - |
| 1788077447 | 67° F | 52% | 759.1 mmHg | 0 in | - | - | - |
| 1788073847 | 70° F | 38% | 759.1 mmHg | 0 in | - | - | - |
| 1788070247 | 71° F | 38% | 759.1 mmHg | 0 in | - | - | - |
| 1788066646 | 72° F | 38% | 758.3 mmHg | 0 in | - | - | - |
| 1788063047 | 72° F | 38% | 759.8 mmHg | 0 in | - | - | - |
* Rain latest hour (hover to see other rain measurements)
** Current wind speed in m/s (hover to see current wind gust speed)